Franklin, Georgia
Current Conditions -  °F | °C
As of 2:55 PM on Thursday 30 Oct 2014 (Local Time) from KLGC Reporting Station
Clear Clear  
Wind Chill: 69°   Ceiling: Unl
Heat Index: 69°   Visibility: 10mi
Dew Point: 43°   Wind: 5mph
Humidity: 38%   Direction: 10°N
Pressure: 30.01"   Gusts: NA
Location:  33.28°N, 85.1°W
Report Text: KLGC 301855Z AUTO 01004KT 10SM CLR 21/06 A3001 RMK AO2 T02070059
Loading
Personal Weather Stations






























Interactive Weather Map
Tropical Storm Tracking
New forecast layout! Learn more

10-Day Weather Forecast

Advertisements
Track Severe Weather on mobile